Time;durP1;ratioP1;P1;durP2;ratioP2;P2;SDS_P1;SDS_P2;PMS_P1;PMS_P2;Temp;Humidity;BMP_temperature;BMP_pressure;BME280_temperature;BME280_humidity;BME280_pressure;Samples;Min_cycle;Max_cycle;Signal;HPM_P1;HPM_P2
2023/03/23 00:02:27;;;;;;;21.37;17.63;;;11.80;87.00;;;;;;5093000;28;20208;-66
2023/03/23 00:04:53;;;;;;;20.43;18.17;;;11.80;87.00;;;;;;5084707;28;20626;-67
2023/03/23 00:07:27;;;;;;;22.10;18.37;;;11.80;87.10;;;;;;5093670;28;20210;-67
2023/03/23 00:09:54;;;;;;;21.23;16.73;;;11.70;86.90;;;;;;5090468;28;20194;-67
2023/03/23 00:12:28;;;;;;;21.57;16.87;;;11.70;86.80;;;;;;5093130;28;20192;-67
2023/03/23 00:14:55;;;;;;;25.17;20.67;;;11.60;87.10;;;;;;5090778;28;20234;-67
2023/03/23 00:17:23;;;;;;;20.93;17.30;;;11.60;87.30;;;;;;5093642;28;20338;-67
2023/03/23 00:19:49;;;;;;;25.50;19.43;;;11.60;87.70;;;;;;5092027;28;20227;-66
2023/03/23 00:22:20;;;;;;;25.67;21.17;;;11.60;87.80;;;;;;5089404;28;20191;-67
2023/03/23 00:24:50;;;;;;;22.60;19.50;;;11.60;88.10;;;;;;5093472;28;20340;-67
2023/03/23 00:27:17;;;;;;;24.93;19.77;;;11.60;88.20;;;;;;5091276;28;20184;-66
2023/03/23 00:29:45;;;;;;;26.37;18.90;;;11.60;88.30;;;;;;5091635;28;20198;-66
2023/03/23 00:32:14;;;;;;;23.37;19.13;;;11.60;88.40;;;;;;5092194;28;20602;-67
2023/03/23 00:34:43;;;;;;;24.30;19.73;;;11.60;88.60;;;;;;5093220;28;20281;-67
2023/03/23 00:37:09;;;;;;;24.27;19.43;;;11.60;88.70;;;;;;5076596;28;20214;-67
2023/03/23 00:39:38;;;;;;;23.40;19.23;;;11.50;88.70;;;;;;5092703;28;20527;-67
2023/03/23 00:42:04;;;;;;;21.73;19.03;;;11.50;88.80;;;;;;5088554;28;20187;-67
2023/03/23 00:44:34;;;;;;;24.10;19.00;;;11.50;89.00;;;;;;5092155;28;20285;-67
2023/03/23 00:47:02;;;;;;;24.80;18.50;;;11.50;89.10;;;;;;5071484;28;20536;-67
2023/03/23 00:49:30;;;;;;;24.40;18.87;;;11.40;89.10;;;;;;5091652;28;20517;-67
2023/03/23 00:51:58;;;;;;;25.43;18.33;;;11.40;89.30;;;;;;5089719;28;20200;-67
2023/03/23 00:54:25;;;;;;;22.23;18.60;;;11.40;89.50;;;;;;5091093;28;20207;-67
2023/03/23 00:56:51;;;;;;;24.70;18.47;;;11.30;89.50;;;;;;5098387;28;20202;-67
2023/03/23 00:59:18;;;;;;;23.90;18.33;;;11.30;89.60;;;;;;5088637;28;20229;-66
2023/03/23 01:01:44;;;;;;;21.53;17.13;;;11.30;89.70;;;;;;5093365;28;20238;-67
2023/03/23 01:04:11;;;;;;;22.93;17.93;;;11.20;89.60;;;;;;5075409;28;20197;-66
2023/03/23 01:06:40;;;;;;;16.97;15.20;;;11.20;89.50;;;;;;5052587;28;20200;-67
2023/03/23 01:09:08;;;;;;;20.33;16.20;;;11.20;89.30;;;;;;5086435;28;20199;-67
2023/03/23 01:11:34;;;;;;;23.23;16.30;;;11.10;89.00;;;;;;5089718;28;20512;-67
2023/03/23 01:14:00;;;;;;;23.50;19.10;;;11.00;88.90;;;;;;5092444;28;20279;-67
2023/03/23 01:16:26;;;;;;;23.70;17.63;;;11.00;88.90;;;;;;5090379;28;20230;-67
2023/03/23 01:18:52;;;;;;;22.70;19.37;;;11.00;89.40;;;;;;5092353;28;20624;-67
2023/03/23 01:21:20;;;;;;;25.23;19.80;;;10.90;89.60;;;;;;5092867;28;20663;-67
2023/03/23 01:23:46;;;;;;;25.47;20.40;;;10.90;89.90;;;;;;5091457;28;20200;-66
2023/03/23 01:26:15;;;;;;;23.47;17.60;;;10.90;90.00;;;;;;5090434;28;20530;-67
2023/03/23 01:28:42;;;;;;;24.33;19.20;;;10.90;90.20;;;;;;5075096;28;20200;-67
2023/03/23 01:31:12;;;;;;;20.67;15.40;;;10.80;90.10;;;;;;5092553;28;20219;-67
2023/03/23 01:33:39;;;;;;;17.43;15.33;;;10.80;90.10;;;;;;5089509;28;20204;-67
2023/03/23 01:36:09;;;;;;;25.03;20.80;;;10.80;90.00;;;;;;5073854;28;20526;-66
2023/03/23 01:38:36;;;;;;;27.17;20.47;;;10.70;90.00;;;;;;5104299;28;20196;-67
2023/03/23 01:41:04;;;;;;;24.37;20.27;;;10.70;90.10;;;;;;5093260;28;20221;-67
2023/03/23 01:43:31;;;;;;;25.37;21.77;;;10.70;90.20;;;;;;5112486;28;20192;-67
2023/03/23 01:45:57;;;;;;;26.53;21.93;;;10.60;90.30;;;;;;5076549;28;20204;-67
2023/03/23 01:48:32;;;;;;;28.70;22.60;;;10.60;90.60;;;;;;5096352;28;20259;-67
2023/03/23 01:50:59;;;;;;;31.87;22.63;;;10.60;90.80;;;;;;5068352;28;20203;-67
2023/03/23 01:53:33;;;;;;;25.13;19.90;;;10.60;90.90;;;;;;5083489;28;20211;-67
2023/03/23 01:56:01;;;;;;;26.43;20.10;;;10.70;91.00;;;;;;5106773;28;20198;-67
2023/03/23 01:58:32;;;;;;;22.70;17.57;;;10.70;91.00;;;;;;5101540;28;20211;-67
2023/03/23 02:01:03;;;;;;;23.70;19.63;;;10.70;91.00;;;;;;5074383;28;20219;-67
2023/03/23 02:03:31;;;;;;;22.77;18.90;;;10.60;91.00;;;;;;5093963;28;20226;-67
2023/03/23 02:05:58;;;;;;;24.43;19.50;;;10.60;90.90;;;;;;5077680;28;20641;-68
2023/03/23 02:08:36;;;;;;;27.90;22.40;;;10.60;90.90;;;;;;5077545;28;20195;-67
2023/03/23 02:11:15;;;;;;;31.40;22.30;;;10.60;90.90;;;;;;5096369;28;20649;-67
2023/03/23 02:13:42;;;;;;;28.47;21.47;;;10.60;91.00;;;;;;5098838;28;20205;-67
2023/03/23 02:16:42;;;;;;;26.97;21.03;;;10.60;91.10;;;;;;5095630;28;20528;-67
2023/03/23 02:19:40;;;;;;;22.53;18.17;;;10.60;91.20;;;;;;5093924;28;20257;-67
2023/03/23 02:22:35;;;;;;;17.13;14.57;;;10.60;91.20;;;;;;5096236;28;20194;-67
2023/03/23 02:25:24;;;;;;;21.07;17.13;;;10.50;91.00;;;;;;5078333;28;20210;-67
2023/03/23 02:28:11;;;;;;;27.00;21.63;;;10.50;90.50;;;;;;5091253;28;20239;-67
2023/03/23 02:30:56;;;;;;;26.40;19.90;;;10.40;90.40;;;;;;5070722;28;20203;-67
2023/03/23 02:33:43;;;;;;;23.87;17.17;;;10.40;90.60;;;;;;5095231;28;20253;-67
2023/03/23 02:36:17;;;;;;;22.97;17.03;;;10.40;90.70;;;;;;5096614;28;20220;-67
2023/03/23 02:39:05;;;;;;;19.87;16.33;;;10.30;90.60;;;;;;5086748;28;20278;-67
2023/03/23 02:41:39;;;;;;;25.07;17.63;;;10.30;90.60;;;;;;5093224;28;20232;-67
2023/03/23 02:44:07;;;;;;;16.57;13.77;;;10.30;90.60;;;;;;5092615;28;20630;-67
2023/03/23 02:46:36;;;;;;;20.27;16.23;;;10.20;90.50;;;;;;5095560;28;20235;-67
2023/03/23 02:49:06;;;;;;;24.03;18.93;;;10.20;90.50;;;;;;5094846;28;20204;-67
2023/03/23 02:51:34;;;;;;;27.93;22.13;;;10.10;90.40;;;;;;5092202;28;20214;-67
2023/03/23 02:54:01;;;;;;;29.47;20.63;;;10.20;90.50;;;;;;5075907;28;20533;-67
2023/03/23 02:56:28;;;;;;;30.03;22.37;;;10.10;90.70;;;;;;5075070;28;20198;-67
2023/03/23 02:58:56;;;;;;;27.00;20.80;;;10.10;91.00;;;;;;5072729;28;20215;-67
2023/03/23 03:01:26;;;;;;;29.63;22.50;;;10.10;91.10;;;;;;5078680;28;20678;-67
2023/03/23 03:03:57;;;;;;;29.80;23.00;;;10.20;91.30;;;;;;5074183;28;20516;-67
2023/03/23 03:06:41;;;;;;;25.67;21.63;;;10.20;91.40;;;;;;5091068;28;20660;-67
2023/03/23 03:09:34;;;;;;;25.70;20.20;;;10.10;91.40;;;;;;5095279;28;20219;-67
2023/03/23 03:12:10;;;;;;;24.37;19.80;;;10.10;91.40;;;;;;5092079;28;20298;-67
2023/03/23 03:15:19;;;;;;;23.43;19.40;;;10.10;91.50;;;;;;5101028;28;20291;-67
2023/03/23 03:17:55;;;;;;;21.90;17.80;;;10.10;91.60;;;;;;5079389;28;20252;-67
2023/03/23 03:20:25;;;;;;;20.00;17.07;;;10.10;91.60;;;;;;5092291;28;20227;-67
2023/03/23 03:22:52;;;;;;;18.70;16.70;;;10.10;91.60;;;;;;5092797;28;20283;-67
2023/03/23 03:25:23;;;;;;;21.37;17.73;;;10.10;91.40;;;;;;5095206;28;20271;-67
2023/03/23 03:27:52;;;;;;;26.33;19.67;;;10.10;91.40;;;;;;5060950;28;20209;-67
2023/03/23 03:30:35;;;;;;;20.10;17.50;;;10.10;91.30;;;;;;5078381;28;20298;-67
2023/03/23 03:33:03;;;;;;;23.27;17.77;;;10.10;91.30;;;;;;5093672;28;20225;-67
2023/03/23 03:35:31;;;;;;;22.50;17.90;;;10.10;91.30;;;;;;5094658;28;20698;-67
2023/03/23 03:38:04;;;;;;;23.03;17.50;;;10.10;91.30;;;;;;5093991;28;20201;-67
2023/03/23 03:40:30;;;;;;;21.10;17.13;;;10.10;91.30;;;;;;5094855;28;20676;-67
2023/03/23 03:42:56;;;;;;;22.27;16.90;;;10.00;91.30;;;;;;5073036;28;20199;-67
2023/03/23 03:45:22;;;;;;;26.63;19.73;;;10.00;91.30;;;;;;5092229;28;20240;-67
2023/03/23 03:47:49;;;;;;;21.63;17.70;;;10.00;91.30;;;;;;5089649;28;20203;-67
2023/03/23 03:50:16;;;;;;;20.27;17.53;;;10.00;91.40;;;;;;5069037;28;20197;-67
2023/03/23 03:52:42;;;;;;;22.10;17.70;;;10.00;91.60;;;;;;5076578;28;20200;-67
2023/03/23 03:55:10;;;;;;;22.03;16.77;;;10.00;91.70;;;;;;5088947;28;20220;-67
2023/03/23 03:57:39;;;;;;;20.03;15.70;;;10.00;91.70;;;;;;5062149;28;20217;-67
2023/03/23 04:00:41;;;;;;;19.50;16.43;;;10.00;91.70;;;;;;5081577;28;20258;-67
2023/03/23 04:03:08;;;;;;;23.27;16.50;;;10.00;91.50;;;;;;5075480;28;20203;-67
2023/03/23 04:05:55;;;;;;;13.43;12.03;;;9.90;91.40;;;;;;5090952;28;20199;-67
2023/03/23 04:08:22;;;;;;;11.93;10.20;;;9.90;91.50;;;;;;5093059;28;20216;-67
2023/03/23 04:10:50;;;;;;;11.83;10.47;;;9.80;91.60;;;;;;5064004;28;20204;-67
2023/03/23 04:13:18;;;;;;;14.90;11.87;;;9.80;91.70;;;;;;5091753;28;20266;-67
2023/03/23 04:15:58;;;;;;;14.97;13.37;;;9.90;91.80;;;;;;5092024;28;20642;-67
2023/03/23 04:18:25;;;;;;;19.30;14.67;;;9.80;91.80;;;;;;5087720;28;20258;-67
2023/03/23 04:20:51;;;;;;;21.63;15.03;;;9.80;91.80;;;;;;5092708;28;20221;-67
2023/03/23 04:23:21;;;;;;;19.43;16.67;;;9.80;91.90;;;;;;5079956;28;20288;-67
2023/03/23 04:25:51;;;;;;;19.90;16.63;;;9.80;91.90;;;;;;5075025;28;20248;-67
2023/03/23 04:28:18;;;;;;;15.87;13.90;;;9.80;91.90;;;;;;5087278;28;20194;-67
2023/03/23 04:31:04;;;;;;;17.60;14.37;;;9.90;92.10;;;;;;5093112;28;20260;-67
2023/03/23 04:33:30;;;;;;;11.60;10.30;;;9.90;92.20;;;;;;5090653;28;20192;-67
2023/03/23 04:36:00;;;;;;;12.77;11.00;;;9.90;92.20;;;;;;5094401;28;20725;-67
2023/03/23 04:38:36;;;;;;;16.73;12.70;;;9.90;92.10;;;;;;5070422;28;20655;-67
2023/03/23 04:41:10;;;;;;;17.17;14.53;;;9.90;91.90;;;;;;5092230;28;20292;-67
2023/03/23 04:43:45;;;;;;;16.90;14.23;;;9.90;91.90;;;;;;5092879;28;20241;-67
2023/03/23 04:46:21;;;;;;;22.40;16.83;;;9.90;91.90;;;;;;5090426;28;20192;-67
2023/03/23 04:48:49;;;;;;;18.63;14.63;;;9.90;91.90;;;;;;5070866;28;20257;-67
2023/03/23 04:51:20;;;;;;;15.73;12.73;;;9.90;91.90;;;;;;5093175;28;20283;-67
2023/03/23 04:53:49;;;;;;;16.90;13.27;;;9.90;91.80;;;;;;5077154;28;20204;-68
2023/03/23 04:56:16;;;;;;;16.70;12.00;;;9.90;91.80;;;;;;5092712;28;20203;-67
2023/03/23 04:58:45;;;;;;;19.23;13.43;;;9.90;91.70;;;;;;5075837;28;20331;-67
2023/03/23 05:01:38;;;;;;;16.27;12.43;;;9.90;91.60;;;;;;5088045;28;20652;-67
2023/03/23 05:04:16;;;;;;;20.00;14.17;;;9.80;91.50;;;;;;5066741;28;20499;-67
2023/03/23 05:06:52;;;;;;;19.23;14.27;;;9.80;91.60;;;;;;5077376;28;20207;-67
2023/03/23 05:09:23;;;;;;;20.53;14.93;;;9.70;91.70;;;;;;5063064;28;20204;-67
2023/03/23 05:11:50;;;;;;;16.40;14.30;;;9.70;91.90;;;;;;5092935;28;20242;-67
2023/03/23 05:14:16;;;;;;;16.27;14.00;;;9.70;92.00;;;;;;5069928;28;20219;-67
2023/03/23 05:16:48;;;;;;;22.87;14.30;;;9.70;92.10;;;;;;5074984;28;20188;-67
2023/03/23 05:19:16;;;;;;;18.80;14.53;;;9.70;92.20;;;;;;5090159;28;20200;-67
2023/03/23 05:21:44;;;;;;;18.63;14.30;;;9.80;92.40;;;;;;5074989;28;20210;-67
2023/03/23 05:24:10;;;;;;;18.93;14.43;;;9.90;92.40;;;;;;5094011;28;20221;-67
2023/03/23 05:26:37;;;;;;;24.17;16.60;;;9.90;92.30;;;;;;5071681;28;20634;-67
2023/03/23 05:29:11;;;;;;;19.73;16.13;;;9.90;92.70;;;;;;5091941;28;20523;-67
2023/03/23 05:31:47;;;;;;;18.77;15.67;;;10.00;92.50;;;;;;5081180;28;20199;-67
2023/03/23 05:34:15;;;;;;;20.93;15.87;;;10.00;92.50;;;;;;5074523;28;20202;-67
2023/03/23 05:36:49;;;;;;;18.73;13.47;;;10.10;92.50;;;;;;5072833;28;20616;-67
2023/03/23 05:39:47;;;;;;;20.27;15.40;;;10.10;92.40;;;;;;5066553;28;20208;-67
2023/03/23 05:42:36;;;;;;;21.33;16.33;;;10.20;92.40;;;;;;5091583;28;20617;-67
2023/03/23 05:45:10;;;;;;;20.73;15.07;;;10.20;92.30;;;;;;5090041;28;20676;-67
2023/03/23 05:47:38;;;;;;;15.40;12.97;;;10.30;92.30;;;;;;5075722;28;20207;-67
2023/03/23 05:50:10;;;;;;;18.27;13.80;;;10.30;92.30;;;;;;5108019;28;20505;-67
2023/03/23 05:52:38;;;;;;;18.03;13.27;;;10.30;92.10;;;;;;5074370;28;20212;-67
2023/03/23 05:55:08;;;;;;;20.83;13.83;;;10.30;92.00;;;;;;5092651;28;20526;-66
2023/03/23 05:57:37;;;;;;;26.63;13.03;;;10.30;92.20;;;;;;5064546;28;20224;-67
2023/03/23 06:00:23;;;;;;;15.63;13.13;;;10.40;91.90;;;;;;5092170;28;20228;-67
2023/03/23 06:03:01;;;;;;;15.37;13.03;;;10.50;91.90;;;;;;5090362;28;20701;-67
2023/03/23 06:05:33;;;;;;;13.73;11.90;;;10.50;91.90;;;;;;5091505;28;20649;-67
2023/03/23 06:07:59;;;;;;;15.67;13.97;;;10.60;91.90;;;;;;5086957;28;20326;-67
2023/03/23 06:10:26;;;;;;;19.73;14.03;;;10.70;91.90;;;;;;5092555;28;20657;-67
2023/03/23 06:12:58;;;;;;;18.50;13.60;;;10.80;91.90;;;;;;5076711;28;20198;-67
2023/03/23 06:15:32;;;;;;;18.10;15.17;;;10.90;91.90;;;;;;5075132;28;20252;-67
2023/03/23 06:18:13;;;;;;;20.20;15.70;;;11.00;92.00;;;;;;5089520;28;20216;-67
2023/03/23 06:21:04;;;;;;;18.73;15.17;;;11.20;92.10;;;;;;5075869;28;20261;-67
2023/03/23 06:23:47;;;;;;;17.40;14.70;;;11.40;92.00;;;;;;5096407;28;20579;-67
2023/03/23 06:26:18;;;;;;;20.70;17.03;;;11.60;91.80;;;;;;5095031;28;20211;-67
2023/03/23 06:28:47;;;;;;;20.73;16.57;;;11.80;91.60;;;;;;5096199;28;20192;-67
2023/03/23 06:31:14;;;;;;;22.33;17.77;;;11.90;91.50;;;;;;5068428;28;20201;-67
2023/03/23 06:33:41;;;;;;;23.47;17.87;;;12.00;91.50;;;;;;5091479;28;20276;-69
2023/03/23 06:36:07;;;;;;;23.40;17.73;;;12.20;91.60;;;;;;5092834;28;20284;-67
2023/03/23 06:39:09;;;;;;;20.80;17.50;;;12.30;91.40;;;;;;5085553;28;20212;-67
2023/03/23 06:41:59;;;;;;;20.20;16.90;;;12.50;91.30;;;;;;5079710;28;20214;-67
2023/03/23 06:44:27;;;;;;;21.07;16.40;;;12.80;90.90;;;;;;5094117;28;20238;-67
2023/03/23 06:46:53;;;;;;;21.00;15.53;;;13.00;90.50;;;;;;5093944;28;20189;-67
2023/03/23 06:49:25;;;;;;;18.00;15.23;;;13.20;90.20;;;;;;5078646;28;20636;-67
2023/03/23 06:52:01;;;;;;;19.33;14.87;;;13.30;89.80;;;;;;5075420;28;20256;-67
2023/03/23 06:54:28;;;;;;;21.13;15.33;;;13.50;89.30;;;;;;5093741;28;20542;-67
2023/03/23 06:56:54;;;;;;;21.87;15.80;;;13.70;88.80;;;;;;5078535;28;20307;-67
2023/03/23 06:59:21;;;;;;;23.33;16.63;;;13.80;88.40;;;;;;5073039;28;20198;-67
2023/03/23 07:01:48;;;;;;;17.40;14.60;;;13.90;88.10;;;;;;5072092;28;20296;-67
2023/03/23 07:04:16;;;;;;;17.27;15.37;;;14.00;87.90;;;;;;5092083;28;20681;-67
2023/03/23 07:07:14;;;;;;;21.60;15.03;;;14.10;87.60;;;;;;5083909;28;20198;-67
2023/03/23 07:09:49;;;;;;;19.40;16.20;;;14.20;87.30;;;;;;5075435;28;20526;-67
2023/03/23 07:12:19;;;;;;;18.23;14.57;;;14.40;87.00;;;;;;5094868;28;20204;-67
2023/03/23 07:14:48;;;;;;;18.30;13.90;;;14.50;86.60;;;;;;5059358;28;20230;-67
2023/03/23 07:17:14;;;;;;;18.93;14.17;;;14.50;86.00;;;;;;5077895;28;20272;-67
2023/03/23 07:19:53;;;;;;;16.80;14.13;;;14.60;85.70;;;;;;5073128;28;20213;-67
2023/03/23 07:22:21;;;;;;;19.20;14.73;;;14.80;85.80;;;;;;5078564;28;20541;-67
2023/03/23 07:24:54;;;;;;;15.83;13.90;;;14.90;85.80;;;;;;5076558;28;20197;-67
2023/03/23 07:27:28;;;;;;;16.07;13.10;;;15.10;85.50;;;;;;5078901;28;20239;-67
2023/03/23 07:29:57;;;;;;;17.33;13.20;;;15.20;85.10;;;;;;5073025;28;20269;-67
2023/03/23 07:32:25;;;;;;;17.53;12.47;;;15.20;84.00;;;;;;5078133;28;20641;-67
2023/03/23 07:34:52;;;;;;;16.47;12.33;;;15.40;83.30;;;;;;5093948;28;20185;-67
2023/03/23 07:37:33;;;;;;;15.30;12.13;;;15.40;81.90;;;;;;5082556;28;20202;-67
2023/03/23 07:40:00;;;;;;;14.83;11.70;;;15.50;81.50;;;;;;5094792;28;20204;-67
2023/03/23 07:42:26;;;;;;;15.13;12.20;;;15.60;80.90;;;;;;5090566;28;20185;-67
2023/03/23 07:44:57;;;;;;;16.77;11.97;;;15.70;80.90;;;;;;5089638;28;20317;-68
2023/03/23 07:47:23;;;;;;;17.37;13.20;;;15.80;80.10;;;;;;5077616;28;20204;-68
2023/03/23 07:49:49;;;;;;;18.93;13.80;;;15.80;80.30;;;;;;5091384;28;20259;-66
2023/03/23 07:52:30;;;;;;;20.53;13.40;;;15.90;80.00;;;;;;5094407;28;20194;-67
2023/03/23 07:54:58;;;;;;;22.13;14.83;;;16.00;79.40;;;;;;5091143;28;20282;-67
2023/03/23 07:57:41;;;;;;;16.30;12.87;;;16.00;79.30;;;;;;5079543;28;20209;-66
2023/03/23 08:00:19;;;;;;;16.07;12.60;;;16.10;79.40;;;;;;5094086;28;20222;-68
2023/03/23 08:02:48;;;;;;;17.30;13.10;;;16.20;78.40;;;;;;5093544;28;20189;-67
2023/03/23 08:05:32;;;;;;;17.47;12.60;;;16.30;77.70;;;;;;5081746;28;20212;-67
2023/03/23 08:08:13;;;;;;;15.67;11.83;;;16.40;77.30;;;;;;5092592;28;20578;-67
2023/03/23 08:10:58;;;;;;;17.83;12.83;;;16.50;76.90;;;;;;5092489;28;20251;-67
2023/03/23 08:14:03;;;;;;;17.80;13.27;;;16.50;76.40;;;;;;5031956;28;20715;-67
2023/03/23 08:16:48;;;;;;;19.20;15.40;;;16.60;75.90;;;;;;5037277;28;20798;-67
2023/03/23 08:19:36;;;;;;;25.33;15.97;;;16.60;75.70;;;;;;5078490;28;20283;-68
2023/03/23 08:22:21;;;;;;;21.83;17.43;;;16.70;75.20;;;;;;5093061;28;20253;-67
2023/03/23 08:25:09;;;;;;;23.03;18.33;;;16.80;75.30;;;;;;5091214;28;20205;-67
2023/03/23 08:28:03;;;;;;;27.90;21.33;;;16.80;74.80;;;;;;5077049;28;20199;-67
2023/03/23 08:30:49;;;;;;;25.97;20.40;;;17.00;74.80;;;;;;5085342;28;20208;-68
2023/03/23 08:33:27;;;;;;;32.73;20.60;;;17.00;73.70;;;;;;5091083;28;20199;-67
2023/03/23 08:36:08;;;;;;;28.60;20.60;;;17.10;73.50;;;;;;5093348;28;20196;-67
2023/03/23 08:39:01;;;;;;;29.77;21.03;;;17.20;73.40;;;;;;5080377;28;20302;-67
2023/03/23 08:41:38;;;;;;;29.77;21.57;;;17.20;73.40;;;;;;5087016;28;20302;-67
2023/03/23 08:44:14;;;;;;;33.80;23.63;;;17.20;73.60;;;;;;5090909;28;20683;-68
2023/03/23 08:47:04;;;;;;;33.67;23.97;;;17.20;73.60;;;;;;5086458;28;20197;-65
2023/03/23 08:49:52;;;;;;;35.30;24.10;;;17.30;73.40;;;;;;5077546;28;20208;-64
2023/03/23 08:52:56;;;;;;;35.63;25.23;;;17.40;73.80;;;;;;5028472;28;20209;-65
2023/03/23 08:55:38;;;;;;;31.63;23.80;;;17.50;73.80;;;;;;5016396;28;20641;-64
2023/03/23 08:58:25;;;;;;;34.00;25.03;;;17.60;73.10;;;;;;5069973;28;20198;-63
2023/03/23 09:01:24;;;;;;;36.37;26.43;;;17.70;72.90;;;;;;5076003;28;20537;-66
2023/03/23 09:04:09;;;;;;;36.67;25.57;;;17.80;72.60;;;;;;5089706;28;20210;-65
2023/03/23 09:06:56;;;;;;;34.83;25.40;;;17.90;72.30;;;;;;5093197;28;20614;-66
2023/03/23 09:09:21;;;;;;;34.83;26.90;;;17.90;71.80;;;;;;5092735;28;20643;-65
2023/03/23 09:11:47;;;;;;;32.50;25.67;;;18.00;71.80;;;;;;5090037;28;20299;-66
2023/03/23 09:14:13;;;;;;;36.67;25.73;;;18.20;71.60;;;;;;5091241;28;20203;-65
2023/03/23 09:16:39;;;;;;;33.83;25.23;;;18.40;71.20;;;;;;5088811;28;20207;-67
2023/03/23 09:19:08;;;;;;;30.37;23.80;;;18.60;70.60;;;;;;5092091;28;20208;-68
2023/03/23 09:21:34;;;;;;;35.33;25.57;;;18.80;69.50;;;;;;5082055;28;20534;-66
2023/03/23 09:24:01;;;;;;;30.97;24.77;;;18.90;68.50;;;;;;5092033;28;20363;-64
2023/03/23 09:26:28;;;;;;;34.37;24.43;;;19.00;68.50;;;;;;5089022;28;20201;-70
2023/03/23 09:28:56;;;;;;;32.00;23.97;;;19.20;68.60;;;;;;5088918;28;20196;-66
2023/03/23 09:31:26;;;;;;;29.30;22.60;;;19.50;67.80;;;;;;5089077;28;20211;-64
2023/03/23 09:33:52;;;;;;;32.20;23.83;;;19.70;67.60;;;;;;5088599;28;20641;-64
2023/03/23 09:36:21;;;;;;;34.93;24.03;;;19.90;67.20;;;;;;5089748;28;20189;-63
2023/03/23 09:38:49;;;;;;;34.47;23.87;;;20.10;66.10;;;;;;5088381;28;20197;-64
2023/03/23 09:41:27;;;;;;;36.83;24.57;;;20.30;65.10;;;;;;5092330;28;20228;-65
2023/03/23 09:44:08;;;;;;;36.20;24.13;;;20.50;65.20;;;;;;5086411;28;20299;-64
2023/03/23 09:46:53;;;;;;;35.37;23.70;;;20.70;64.60;;;;;;5091146;28;20529;-66
2023/03/23 09:49:28;;;;;;;35.00;24.43;;;21.00;64.10;;;;;;5081016;28;20231;-65
2023/03/23 09:52:03;;;;;;;32.03;24.83;;;21.20;63.20;;;;;;5090044;28;20254;-66
2023/03/23 09:54:36;;;;;;;33.33;25.60;;;21.40;63.30;;;;;;5093207;28;20190;-66
2023/03/23 09:57:04;;;;;;;42.23;28.23;;;21.50;62.90;;;;;;5088690;28;20207;-65
2023/03/23 09:59:39;;;;;;;32.77;25.20;;;21.40;62.30;;;;;;5092829;28;20623;-63
2023/03/23 10:02:17;;;;;;;34.27;24.57;;;21.30;62.60;;;;;;5111635;28;20214;-65
2023/03/23 10:04:52;;;;;;;36.50;26.43;;;21.10;62.70;;;;;;5095966;28;20280;-65
2023/03/23 10:07:25;;;;;;;38.07;26.63;;;21.00;63.60;;;;;;5095603;28;20280;-65
2023/03/23 10:10:02;;;;;;;36.67;26.87;;;20.80;63.70;;;;;;5088211;28;20232;-65
2023/03/23 10:12:31;;;;;;;35.73;28.63;;;20.60;64.50;;;;;;5093327;28;20520;-65
2023/03/23 10:15:16;;;;;;;36.37;27.87;;;20.50;65.70;;;;;;5094308;28;20203;-63
2023/03/23 10:17:58;;;;;;;44.50;30.03;;;20.50;65.60;;;;;;5094388;28;20284;-67
2023/03/23 10:20:52;;;;;;;41.00;30.50;;;20.60;65.80;;;;;;5094634;28;20224;-67
2023/03/23 10:23:18;;;;;;;43.27;31.23;;;20.80;65.40;;;;;;5094671;28;20192;-66
2023/03/23 10:25:56;;;;;;;45.30;32.57;;;21.00;65.10;;;;;;5093329;28;20189;-63
2023/03/23 10:28:40;;;;;;;45.97;31.80;;;21.10;64.30;;;;;;5094198;28;21621;-64
2023/03/23 10:31:13;;;;;;;40.97;29.97;;;21.30;63.70;;;;;;5090294;28;20200;-66
2023/03/23 10:33:42;;;;;;;41.63;31.87;;;21.40;63.20;;;;;;5093950;28;20189;-66
2023/03/23 10:36:24;;;;;;;46.17;34.33;;;21.50;62.60;;;;;;5091023;28;20194;-65
2023/03/23 10:39:12;;;;;;;49.03;33.67;;;21.60;61.00;;;;;;5095586;28;20191;-65
2023/03/23 10:41:39;;;;;;;44.13;33.03;;;21.50;61.60;;;;;;5090144;28;20209;-69
2023/03/23 10:44:17;;;;;;;48.00;33.87;;;21.50;60.60;;;;;;5091992;28;20229;-67
2023/03/23 10:47:02;;;;;;;42.30;33.00;;;21.20;60.20;;;;;;5091264;28;20193;-64
2023/03/23 10:49:46;;;;;;;55.67;34.47;;;21.00;60.70;;;;;;5092402;28;20552;-64
2023/03/23 10:52:38;;;;;;;48.10;36.30;;;20.90;63.20;;;;;;5095187;28;20227;-63
2023/03/23 10:55:18;;;;;;;46.57;33.87;;;20.90;63.80;;;;;;5093679;28;20204;-63
2023/03/23 10:57:46;;;;;;;49.90;36.63;;;21.00;62.30;;;;;;5093407;28;20188;-66
2023/03/23 11:00:26;;;;;;;52.07;35.17;;;21.00;61.20;;;;;;5087509;28;20297;-64
2023/03/23 11:03:07;;;;;;;45.00;35.67;;;21.10;60.90;;;;;;5089142;28;20803;-65
2023/03/23 11:05:40;;;;;;;45.47;32.13;;;21.20;60.80;;;;;;5092084;28;20209;-66
2023/03/23 11:08:19;;;;;;;45.13;34.70;;;21.30;59.20;;;;;;5089422;28;20185;-64
2023/03/23 11:11:09;;;;;;;40.13;30.77;;;21.30;60.30;;;;;;5093919;28;20279;-66
2023/03/23 11:13:41;;;;;;;43.23;32.50;;;21.30;60.50;;;;;;5093774;28;20189;-65
2023/03/23 11:16:10;;;;;;;48.87;36.53;;;21.30;60.80;;;;;;5109619;28;20201;-62
2023/03/23 11:18:40;;;;;;;47.30;34.53;;;21.20;61.40;;;;;;5093536;28;20254;-65
2023/03/23 11:21:08;;;;;;;44.20;33.20;;;21.30;61.40;;;;;;5094775;28;20217;-66
2023/03/23 11:23:39;;;;;;;45.43;32.83;;;21.40;61.50;;;;;;5092770;28;20522;-62
2023/03/23 11:26:18;;;;;;;48.57;34.67;;;21.40;61.50;;;;;;5093434;28;20530;-66
2023/03/23 11:29:10;;;;;;;42.37;33.77;;;21.40;60.10;;;;;;5095631;28;20212;-64
2023/03/23 11:31:40;;;;;;;45.17;34.00;;;21.30;60.80;;;;;;5085786;28;20224;-66
2023/03/23 11:34:39;;;;;;;44.30;32.10;;;21.10;60.00;;;;;;5092213;28;20508;-68
2023/03/23 11:37:15;;;;;;;45.80;34.87;;;21.00;60.20;;;;;;5102224;28;20209;-66
2023/03/23 11:40:21;;;;;;;49.23;33.17;;;20.80;60.80;;;;;;5091805;28;20185;-67
2023/03/23 11:42:48;;;;;;;49.43;33.60;;;20.70;61.50;;;;;;5089950;28;20205;-65
2023/03/23 11:45:33;;;;;;;47.83;36.67;;;20.50;61.30;;;;;;5092462;28;20278;-67
2023/03/23 11:48:13;;;;;;;52.43;37.80;;;20.40;62.00;;;;;;5090824;28;20189;-64
2023/03/23 11:50:51;;;;;;;54.03;39.80;;;20.30;62.60;;;;;;5090411;28;20221;-64
2023/03/23 11:53:41;;;;;;;51.00;40.00;;;20.20;64.20;;;;;;5093485;28;20316;-62
2023/03/23 11:56:34;;;;;;;54.90;36.03;;;20.10;65.00;;;;;;5073473;28;20271;-62
2023/03/23 11:59:03;;;;;;;50.33;37.33;;;20.10;66.20;;;;;;5091044;28;20224;-64
2023/03/23 12:02:07;;;;;;;56.90;38.73;;;20.10;64.40;;;;;;5092760;28;20217;-64
2023/03/23 12:04:54;;;;;;;52.13;39.57;;;20.20;63.30;;;;;;5071265;28;20236;-65
2023/03/23 12:07:42;;;;;;;55.80;39.33;;;20.30;64.90;;;;;;5093499;28;20192;-66
2023/03/23 12:10:22;;;;;;;58.60;40.50;;;20.30;63.80;;;;;;5081183;28;20189;-65
2023/03/23 12:13:06;;;;;;;56.13;42.53;;;20.40;64.20;;;;;;5084962;28;20188;-63
2023/03/23 12:15:48;;;;;;;48.73;35.63;;;20.60;63.30;;;;;;5093576;28;20474;-64
2023/03/23 12:18:41;;;;;;;56.77;39.33;;;20.70;62.60;;;;;;5093376;28;20246;-64
2023/03/23 12:21:15;;;;;;;50.83;37.30;;;21.00;63.00;;;;;;5093570;28;20281;-66
2023/03/23 12:24:04;;;;;;;53.27;39.27;;;21.40;61.70;;;;;;5088286;28;20190;-64
2023/03/23 12:26:58;;;;;;;51.17;37.97;;;21.70;59.80;;;;;;5090435;28;20204;-63
2023/03/23 12:29:27;;;;;;;35.77;25.83;;;21.90;59.40;;;;;;5085715;28;20205;-66
2023/03/23 12:32:26;;;;;;;40.80;29.07;;;21.90;56.70;;;;;;5092997;28;20295;-65
2023/03/23 12:35:31;;;;;;;44.97;32.40;;;21.80;56.50;;;;;;5091007;28;20197;-65
2023/03/23 12:38:12;;;;;;;41.40;26.47;;;21.60;57.90;;;;;;5101950;28;20240;-64
2023/03/23 12:41:13;;;;;;;37.67;25.43;;;21.50;56.90;;;;;;5087431;28;20209;-66
2023/03/23 12:43:51;;;;;;;38.47;26.57;;;21.40;56.50;;;;;;5085369;28;20225;-64
2023/03/23 12:47:08;;;;;;;35.03;25.97;;;21.30;55.80;;;;;;5090358;28;20239;-67
2023/03/23 12:49:42;;;;;;;38.87;27.57;;;21.30;56.00;;;;;;5053541;28;20205;-65
2023/03/23 12:52:26;;;;;;;36.53;28.10;;;21.20;57.20;;;;;;5082363;28;20286;-65
2023/03/23 12:55:14;;;;;;;41.17;28.77;;;21.10;57.90;;;;;;5090078;28;20204;-66
2023/03/23 12:57:40;;;;;;;36.47;27.87;;;21.20;58.50;;;;;;5081490;28;20205;-65
2023/03/23 13:00:50;;;;;;;39.33;27.60;;;21.20;57.60;;;;;;5083795;28;20216;-65
2023/03/23 13:03:47;;;;;;;38.27;29.30;;;21.30;56.20;;;;;;5086987;28;20227;-65
2023/03/23 13:06:37;;;;;;;40.23;30.10;;;21.40;58.00;;;;;;5093179;28;20507;-65
2023/03/23 13:09:06;;;;;;;41.50;27.67;;;21.40;56.50;;;;;;5084206;28;20207;-65
2023/03/23 13:11:37;;;;;;;36.53;25.87;;;21.40;56.90;;;;;;5091179;28;20625;-65